createdAt,value
2022-09-06T00:02:45.443Z,19.60
2022-09-06T00:07:47.376Z,19.52
2022-09-06T00:12:49.083Z,19.47
2022-09-06T00:17:51.628Z,19.45
2022-09-06T00:23:13.679Z,19.47
2022-09-06T00:28:16.505Z,19.49
2022-09-06T00:33:18.176Z,19.47
2022-09-06T00:38:20.291Z,19.45
2022-09-06T00:43:22.071Z,19.21
2022-09-06T00:48:24.908Z,19.16
2022-09-06T00:53:27.521Z,19.20
2022-09-06T00:58:29.473Z,19.23
2022-09-06T01:03:31.512Z,18.97
2022-09-06T01:09:05.381Z,18.87
2022-09-06T01:14:31.776Z,18.85
2022-09-06T01:20:01.625Z,18.62
2022-09-06T01:25:21.825Z,18.72
2022-09-06T01:30:24.856Z,18.69
2022-09-06T01:35:47.981Z,18.67
2022-09-06T01:40:49.852Z,18.64
2022-09-06T01:46:17.678Z,18.56
2022-09-06T01:51:47.520Z,18.55
2022-09-06T01:56:55.074Z,18.45
2022-09-06T02:01:59.593Z,18.46
2022-09-06T02:07:08.816Z,18.33
2022-09-06T02:12:13.391Z,18.13
2022-09-06T02:17:20.468Z,17.60
2022-09-06T02:22:25.526Z,17.60
2022-09-06T02:27:30.661Z,17.77
2022-09-06T02:32:38.497Z,17.65
2022-09-06T02:37:41.527Z,17.63
2022-09-06T02:42:43.192Z,17.55
2022-09-06T02:47:44.864Z,17.58
2022-09-06T02:52:46.580Z,17.67
2022-09-06T02:57:48.953Z,17.64
2022-09-06T03:02:50.927Z,17.52
2022-09-06T03:07:53.168Z,17.63
2022-09-06T03:12:55.037Z,17.80
2022-09-06T03:18:00.237Z,17.89
2022-09-06T03:23:02.188Z,17.93
2022-09-06T03:28:03.844Z,17.91
2022-09-06T03:33:05.613Z,17.92
2022-09-06T03:38:07.580Z,17.89
2022-09-06T03:43:09.252Z,17.88
2022-09-06T03:48:10.904Z,17.85
2022-09-06T03:53:13.145Z,17.85
2022-09-06T03:58:16.649Z,17.82
2022-09-06T04:03:19.543Z,17.77
2022-09-06T04:08:21.333Z,17.70
2022-09-06T04:13:24.101Z,17.67
2022-09-06T04:18:26.505Z,17.62
2022-09-06T04:23:29.613Z,17.60
2022-09-06T04:28:31.610Z,17.56
2022-09-06T04:33:35.244Z,17.56
2022-09-06T04:38:42.563Z,17.52
2022-09-06T04:43:44.455Z,17.49
2022-09-06T04:48:47.016Z,17.46
2022-09-06T04:53:48.732Z,17.66
2022-09-06T04:58:51.585Z,17.68
2022-09-06T05:03:56.714Z,17.64
2022-09-06T05:08:58.844Z,17.53
2022-09-06T05:14:00.771Z,17.58
2022-09-06T05:19:02.448Z,17.77
2022-09-06T05:24:04.455Z,18.00
2022-09-06T05:29:06.544Z,18.14
2022-09-06T05:34:08.275Z,17.92
2022-09-06T05:39:10.138Z,17.81
2022-09-06T05:44:11.821Z,17.91
2022-09-06T05:49:13.849Z,18.07
2022-09-06T05:54:15.490Z,18.33
2022-09-06T05:59:17.367Z,18.53
2022-09-06T06:04:19.630Z,18.64
2022-09-06T06:09:21.492Z,18.73
2022-09-06T06:14:23.440Z,18.80
2022-09-06T06:19:26.634Z,18.89
2022-09-06T06:24:28.545Z,19.12
2022-09-06T06:29:30.395Z,19.35
2022-09-06T06:34:32.112Z,19.47
2022-09-06T06:39:33.819Z,19.80
2022-09-06T06:44:35.569Z,20.08
2022-09-06T06:49:37.385Z,20.30
2022-09-06T06:54:39.129Z,20.51
2022-09-06T06:59:41.058Z,20.68
2022-09-06T07:04:43.147Z,20.88
2022-09-06T07:15:07.175Z,20.87
2022-09-06T07:25:21.002Z,21.42
2022-09-06T07:30:23.251Z,21.64
2022-09-06T07:35:26.553Z,21.74
2022-09-06T07:40:30.952Z,22.05
2022-09-06T07:45:32.795Z,22.15
2022-09-06T07:50:50.610Z,22.42
2022-09-06T07:55:54.306Z,22.45
2022-09-06T08:01:30.485Z,22.29
2022-09-06T08:11:57.157Z,22.25
2022-09-06T08:16:58.928Z,22.75
2022-09-06T08:22:13.582Z,23.06
2022-09-06T08:27:22.025Z,23.23
2022-09-06T08:32:25.762Z,23.37
2022-09-06T08:37:28.298Z,23.48
2022-09-06T08:42:31.494Z,23.17
2022-09-06T08:47:34.159Z,23.16
2022-09-06T08:53:17.615Z,23.41
2022-09-06T08:58:38.558Z,23.68
2022-09-06T09:03:43.233Z,23.80
2022-09-06T09:08:59.136Z,23.86
2022-09-06T09:14:16.239Z,23.80
2022-09-06T09:19:17.902Z,23.95
2022-09-06T09:24:19.573Z,24.08
2022-09-06T09:29:26.805Z,24.28
2022-09-06T09:34:35.786Z,24.07
2022-09-06T09:39:39.565Z,24.00
2022-09-06T09:44:44.787Z,24.34
2022-09-06T09:49:46.596Z,24.66
2022-09-06T09:54:50.708Z,24.79
2022-09-06T09:59:58.331Z,24.95
2022-09-06T10:05:09.576Z,25.04
2022-09-06T10:10:14.681Z,24.87
2022-09-06T10:15:34.171Z,24.91
2022-09-06T10:20:42.238Z,24.85
2022-09-06T10:25:46.309Z,25.22
2022-09-06T10:31:11.960Z,25.03
2022-09-06T10:36:19.443Z,25.27
2022-09-06T10:41:34.682Z,25.64
2022-09-06T10:46:37.974Z,25.74
2022-09-06T10:51:42.620Z,26.01
2022-09-06T10:56:50.790Z,26.16
2022-09-06T11:02:00.982Z,26.14
2022-09-06T11:07:19.445Z,26.23
2022-09-06T11:12:37.710Z,25.83
2022-09-06T11:18:03.875Z,26.25
2022-09-06T11:23:19.025Z,26.07
2022-09-06T11:28:35.856Z,26.10
2022-09-06T11:33:39.938Z,26.22
2022-09-06T11:38:42.610Z,26.55
2022-09-06T11:43:49.377Z,26.17
2022-09-06T11:49:16.328Z,26.57
2022-09-06T11:54:18.109Z,26.64
2022-09-06T11:59:27.265Z,26.60
2022-09-06T12:05:07.558Z,26.85
2022-09-06T12:10:31.137Z,27.16
2022-09-06T12:15:54.361Z,27.36
2022-09-06T12:20:56.653Z,27.24
2022-09-06T12:25:59.017Z,27.21
2022-09-06T12:31:01.355Z,27.22
2022-09-06T12:36:30.416Z,27.17
2022-09-06T12:41:41.736Z,27.23
2022-09-06T12:46:48.558Z,27.36
2022-09-06T12:51:50.438Z,27.59
2022-09-06T12:56:53.865Z,27.55
2022-09-06T13:01:55.643Z,27.44
2022-09-06T13:06:59.496Z,26.89
2022-09-06T13:12:17.731Z,26.80
2022-09-06T13:17:28.436Z,26.91
2022-09-06T13:22:48.753Z,27.09
2022-09-06T13:27:57.534Z,27.15
2022-09-06T13:33:00.008Z,26.87
2022-09-06T13:38:34.374Z,26.63
2022-09-06T13:43:45.144Z,26.74
2022-09-06T13:48:46.956Z,26.89
2022-09-06T13:53:48.987Z,26.88
2022-09-06T13:58:50.809Z,26.96
2022-09-06T14:03:53.218Z,26.99
2022-09-06T14:09:10.663Z,27.08
2022-09-06T14:14:13.061Z,26.87
2022-09-06T14:19:15.361Z,26.99
2022-09-06T14:24:17.223Z,27.05
2022-09-06T14:29:19.069Z,27.21
2022-09-06T14:34:21.674Z,27.22
2022-09-06T14:39:23.334Z,27.24
2022-09-06T14:44:25.233Z,27.11
2022-09-06T14:49:27.188Z,27.38
2022-09-06T14:54:29.563Z,27.38
2022-09-06T14:59:31.604Z,27.47
2022-09-06T15:04:34.905Z,27.39
2022-09-06T15:09:37.417Z,27.13
2022-09-06T15:14:41.061Z,26.90
2022-09-06T15:19:42.837Z,26.54
2022-09-06T15:24:45.108Z,26.42
2022-09-06T15:29:46.841Z,26.37
2022-09-06T15:34:48.548Z,26.23
2022-09-06T15:39:50.506Z,26.02
2022-09-06T15:44:52.206Z,26.05
2022-09-06T15:49:53.943Z,25.89
2022-09-06T15:55:14.449Z,25.81
2022-09-06T16:00:17.875Z,25.64
2022-09-06T16:10:41.826Z,25.32
2022-09-06T16:15:43.560Z,25.28
2022-09-06T16:20:45.584Z,25.05
2022-09-06T16:25:49.692Z,24.79
2022-09-06T16:30:51.623Z,24.62
2022-09-06T16:35:53.299Z,24.51
2022-09-06T16:40:55.239Z,24.28
2022-09-06T16:46:04.151Z,24.32
2022-09-06T16:51:17.605Z,24.24
2022-09-06T16:56:22.373Z,24.19
2022-09-06T17:01:25.747Z,23.99
2022-09-06T17:06:29.161Z,23.76
2022-09-06T17:11:31.268Z,23.76
2022-09-06T17:16:51.510Z,23.70
2022-09-06T17:21:53.941Z,23.61
2022-09-06T17:26:55.724Z,23.40
2022-09-06T17:31:57.615Z,23.26
2022-09-06T17:36:59.659Z,23.16
2022-09-06T17:42:02.190Z,23.24
2022-09-06T17:47:13.481Z,23.12
2022-09-06T17:52:15.776Z,23.09
2022-09-06T17:57:17.534Z,23.11
2022-09-06T18:02:19.291Z,22.97
2022-09-06T18:07:21.001Z,22.90
2022-09-06T18:12:24.150Z,22.86
2022-09-06T18:17:26.889Z,22.88
2022-09-06T18:22:28.608Z,22.82
2022-09-06T18:27:30.373Z,22.76
2022-09-06T18:32:32.625Z,22.69
2022-09-06T18:37:36.127Z,22.57
2022-09-06T18:42:42.673Z,22.50
2022-09-06T18:47:44.739Z,22.39
2022-09-06T18:52:46.629Z,22.30
2022-09-06T18:57:48.390Z,22.07
2022-09-06T19:02:50.082Z,21.75
2022-09-06T19:07:52.091Z,21.77
2022-09-06T19:12:54.201Z,21.89
2022-09-06T19:17:57.033Z,21.92
2022-09-06T19:22:58.689Z,21.91
2022-09-06T19:28:00.652Z,21.87
2022-09-06T19:33:02.358Z,21.80
2022-09-06T19:38:04.224Z,21.73
2022-09-06T19:43:06.134Z,21.66
2022-09-06T19:48:08.812Z,21.60
2022-09-06T19:53:10.498Z,21.54
2022-09-06T19:58:12.955Z,21.46
2022-09-06T20:03:14.637Z,21.41
2022-09-06T20:08:16.327Z,21.32
2022-09-06T20:13:18.158Z,21.24
2022-09-06T20:18:20.632Z,21.22
2022-09-06T20:23:22.598Z,21.16
2022-09-06T20:28:24.444Z,21.05
2022-09-06T20:33:26.153Z,20.92
2022-09-06T20:38:29.691Z,20.85
2022-09-06T20:43:39.067Z,20.77
2022-09-06T20:48:44.728Z,20.66
2022-09-06T20:53:51.973Z,20.57
2022-09-06T20:59:01.032Z,20.47
2022-09-06T21:04:06.193Z,20.31
2022-09-06T21:09:11.544Z,20.17
2022-09-06T21:14:13.995Z,20.13
2022-09-06T21:19:16.267Z,20.05
2022-09-06T21:24:18.298Z,20.01
2022-09-06T21:29:20.052Z,19.91
2022-09-06T21:34:22.469Z,19.88
2022-09-06T21:39:24.571Z,19.81
2022-09-06T21:44:26.465Z,19.70
2022-09-06T21:49:28.193Z,19.62
2022-09-06T21:54:29.905Z,19.58
2022-09-06T21:59:31.601Z,19.54
2022-09-06T22:04:33.601Z,19.47
2022-09-06T22:09:35.332Z,19.36
2022-09-06T22:14:37.230Z,19.38
2022-09-06T22:19:38.920Z,19.35
2022-09-06T22:24:40.629Z,19.33
2022-09-06T22:29:42.376Z,19.29
2022-09-06T22:34:44.466Z,19.20
2022-09-06T22:39:48.077Z,19.15
2022-09-06T22:44:50.035Z,19.08
2022-09-06T22:49:51.886Z,19.02
2022-09-06T22:54:53.803Z,18.93
2022-09-06T22:59:55.508Z,18.88
2022-09-06T23:04:57.525Z,18.80
2022-09-06T23:09:59.315Z,18.79
2022-09-06T23:15:01.479Z,18.72
2022-09-06T23:20:03.935Z,18.68
2022-09-06T23:25:07.161Z,18.65
2022-09-06T23:30:10.059Z,18.60
2022-09-06T23:35:11.813Z,18.54
2022-09-06T23:40:14.965Z,18.42
2022-09-06T23:45:17.314Z,18.37
2022-09-06T23:50:19.009Z,18.30
2022-09-06T23:55:20.720Z,17.62
